sensor_id;sensor_type;location;lat;lon;timestamp;P1;durP1;ratioP1;P2;durP2;ratioP2
11699;SDS011;5906;51.660;6.674;2023-08-20T00:01:25;10.60;;;6.23;;
11699;SDS011;5906;51.660;6.674;2023-08-20T00:03:53;12.83;;;6.47;;
11699;SDS011;5906;51.660;6.674;2023-08-20T00:06:23;19.10;;;5.53;;
11699;SDS011;5906;51.660;6.674;2023-08-20T00:08:50;19.93;;;6.70;;
11699;SDS011;5906;51.660;6.674;2023-08-20T00:11:17;12.73;;;5.90;;
11699;SDS011;5906;51.660;6.674;2023-08-20T00:13:44;17.40;;;6.30;;
11699;SDS011;5906;51.660;6.674;2023-08-20T00:16:11;10.33;;;6.30;;
11699;SDS011;5906;51.660;6.674;2023-08-20T00:18:38;9.80;;;6.00;;
11699;SDS011;5906;51.660;6.674;2023-08-20T00:21:06;22.10;;;6.10;;
11699;SDS011;5906;51.660;6.674;2023-08-20T00:23:34;11.10;;;6.50;;
11699;SDS011;5906;51.660;6.674;2023-08-20T00:26:02;14.10;;;6.20;;
11699;SDS011;5906;51.660;6.674;2023-08-20T00:28:29;14.10;;;6.80;;
11699;SDS011;5906;51.660;6.674;2023-08-20T00:30:56;8.80;;;6.10;;
11699;SDS011;5906;51.660;6.674;2023-08-20T00:33:23;13.57;;;6.60;;
11699;SDS011;5906;51.660;6.674;2023-08-20T00:35:50;8.40;;;5.93;;
11699;SDS011;5906;51.660;6.674;2023-08-20T00:38:17;8.83;;;6.47;;
11699;SDS011;5906;51.660;6.674;2023-08-20T00:40:44;10.77;;;5.67;;
11699;SDS011;5906;51.660;6.674;2023-08-20T00:43:11;16.17;;;5.90;;
11699;SDS011;5906;51.660;6.674;2023-08-20T00:45:37;9.50;;;6.53;;
11699;SDS011;5906;51.660;6.674;2023-08-20T00:48:06;8.20;;;6.03;;
11699;SDS011;5906;51.660;6.674;2023-08-20T00:50:33;12.87;;;6.73;;
11699;SDS011;5906;51.660;6.674;2023-08-20T00:53:01;12.37;;;6.33;;
11699;SDS011;5906;51.660;6.674;2023-08-20T00:55:28;10.60;;;6.90;;
11699;SDS011;5906;51.660;6.674;2023-08-20T00:57:55;13.70;;;5.93;;
11699;SDS011;5906;51.660;6.674;2023-08-20T01:00:23;15.20;;;6.40;;
11699;SDS011;5906;51.660;6.674;2023-08-20T01:02:50;9.67;;;6.20;;
11699;SDS011;5906;51.660;6.674;2023-08-20T01:05:18;9.07;;;5.87;;
11699;SDS011;5906;51.660;6.674;2023-08-20T01:07:58;9.90;;;5.83;;
11699;SDS011;5906;51.660;6.674;2023-08-20T01:10:39;12.17;;;6.70;;
11699;SDS011;5906;51.660;6.674;2023-08-20T01:13:13;9.13;;;6.30;;
11699;SDS011;5906;51.660;6.674;2023-08-20T01:15:41;10.90;;;6.40;;
11699;SDS011;5906;51.660;6.674;2023-08-20T01:18:08;12.50;;;6.23;;
11699;SDS011;5906;51.660;6.674;2023-08-20T01:20:36;12.20;;;6.80;;
11699;SDS011;5906;51.660;6.674;2023-08-20T01:26:20;11.00;;;6.77;;
11699;SDS011;5906;51.660;6.674;2023-08-20T01:29:06;11.17;;;7.67;;
11699;SDS011;5906;51.660;6.674;2023-08-20T01:31:34;10.80;;;7.33;;
11699;SDS011;5906;51.660;6.674;2023-08-20T01:34:01;12.20;;;7.03;;
11699;SDS011;5906;51.660;6.674;2023-08-20T01:36:29;17.20;;;6.93;;
11699;SDS011;5906;51.660;6.674;2023-08-20T01:38:56;13.10;;;6.63;;
11699;SDS011;5906;51.660;6.674;2023-08-20T01:41:23;16.70;;;6.40;;
11699;SDS011;5906;51.660;6.674;2023-08-20T01:43:49;8.40;;;6.60;;
11699;SDS011;5906;51.660;6.674;2023-08-20T01:46:16;12.07;;;6.77;;
11699;SDS011;5906;51.660;6.674;2023-08-20T01:48:44;20.03;;;7.40;;
11699;SDS011;5906;51.660;6.674;2023-08-20T01:51:11;10.60;;;6.23;;
11699;SDS011;5906;51.660;6.674;2023-08-20T01:53:37;13.17;;;7.23;;
11699;SDS011;5906;51.660;6.674;2023-08-20T01:56:09;22.10;;;8.00;;
11699;SDS011;5906;51.660;6.674;2023-08-20T01:58:37;9.60;;;6.70;;
11699;SDS011;5906;51.660;6.674;2023-08-20T02:01:04;11.40;;;7.67;;
11699;SDS011;5906;51.660;6.674;2023-08-20T02:03:31;10.80;;;7.20;;
11699;SDS011;5906;51.660;6.674;2023-08-20T02:05:57;18.10;;;7.97;;
11699;SDS011;5906;51.660;6.674;2023-08-20T02:08:25;9.50;;;6.83;;
11699;SDS011;5906;51.660;6.674;2023-08-20T02:10:59;11.90;;;7.70;;
11699;SDS011;5906;51.660;6.674;2023-08-20T02:13:30;14.03;;;7.80;;
11699;SDS011;5906;51.660;6.674;2023-08-20T02:15:58;12.40;;;7.93;;
11699;SDS011;5906;51.660;6.674;2023-08-20T02:18:29;12.00;;;7.30;;
11699;SDS011;5906;51.660;6.674;2023-08-20T02:20:57;13.97;;;8.30;;
11699;SDS011;5906;51.660;6.674;2023-08-20T02:23:24;11.90;;;7.60;;
11699;SDS011;5906;51.660;6.674;2023-08-20T02:25:51;15.10;;;7.50;;
11699;SDS011;5906;51.660;6.674;2023-08-20T02:28:18;14.57;;;7.43;;
11699;SDS011;5906;51.660;6.674;2023-08-20T02:30:45;13.00;;;7.40;;
11699;SDS011;5906;51.660;6.674;2023-08-20T02:33:13;18.50;;;7.53;;
11699;SDS011;5906;51.660;6.674;2023-08-20T02:35:40;15.70;;;8.30;;
11699;SDS011;5906;51.660;6.674;2023-08-20T02:38:07;18.87;;;8.03;;
11699;SDS011;5906;51.660;6.674;2023-08-20T02:40:42;14.53;;;7.80;;
11699;SDS011;5906;51.660;6.674;2023-08-20T02:43:09;12.63;;;7.77;;
11699;SDS011;5906;51.660;6.674;2023-08-20T02:45:42;11.63;;;7.10;;
11699;SDS011;5906;51.660;6.674;2023-08-20T02:48:10;12.57;;;7.80;;
11699;SDS011;5906;51.660;6.674;2023-08-20T02:50:37;10.33;;;7.50;;
11699;SDS011;5906;51.660;6.674;2023-08-20T02:53:04;12.27;;;7.50;;
11699;SDS011;5906;51.660;6.674;2023-08-20T02:55:31;12.00;;;6.53;;
11699;SDS011;5906;51.660;6.674;2023-08-20T02:57:59;9.70;;;7.53;;
11699;SDS011;5906;51.660;6.674;2023-08-20T03:00:26;13.60;;;7.00;;
11699;SDS011;5906;51.660;6.674;2023-08-20T03:02:52;16.07;;;6.80;;
11699;SDS011;5906;51.660;6.674;2023-08-20T03:05:19;12.67;;;7.10;;
11699;SDS011;5906;51.660;6.674;2023-08-20T03:07:46;13.33;;;7.73;;
11699;SDS011;5906;51.660;6.674;2023-08-20T03:10:14;10.27;;;7.87;;
11699;SDS011;5906;51.660;6.674;2023-08-20T03:12:41;16.17;;;8.60;;
11699;SDS011;5906;51.660;6.674;2023-08-20T03:15:08;12.90;;;8.30;;
11699;SDS011;5906;51.660;6.674;2023-08-20T03:17:35;22.70;;;7.83;;
11699;SDS011;5906;51.660;6.674;2023-08-20T03:20:03;12.03;;;8.00;;
11699;SDS011;5906;51.660;6.674;2023-08-20T03:22:32;13.20;;;7.93;;
11699;SDS011;5906;51.660;6.674;2023-08-20T03:25:00;11.03;;;8.00;;
11699;SDS011;5906;51.660;6.674;2023-08-20T03:27:26;18.70;;;8.20;;
11699;SDS011;5906;51.660;6.674;2023-08-20T03:29:54;19.20;;;8.10;;
11699;SDS011;5906;51.660;6.674;2023-08-20T03:32:21;15.73;;;7.77;;
11699;SDS011;5906;51.660;6.674;2023-08-20T03:34:48;20.80;;;8.23;;
11699;SDS011;5906;51.660;6.674;2023-08-20T03:37:15;15.27;;;8.17;;
11699;SDS011;5906;51.660;6.674;2023-08-20T03:39:42;17.30;;;9.10;;
11699;SDS011;5906;51.660;6.674;2023-08-20T03:42:09;12.67;;;7.87;;
11699;SDS011;5906;51.660;6.674;2023-08-20T03:44:36;10.10;;;7.63;;
11699;SDS011;5906;51.660;6.674;2023-08-20T03:47:03;15.20;;;7.23;;
11699;SDS011;5906;51.660;6.674;2023-08-20T03:49:34;10.90;;;8.23;;
11699;SDS011;5906;51.660;6.674;2023-08-20T03:52:01;15.70;;;9.10;;
11699;SDS011;5906;51.660;6.674;2023-08-20T03:54:29;17.87;;;9.47;;
11699;SDS011;5906;51.660;6.674;2023-08-20T03:56:56;14.23;;;8.80;;
11699;SDS011;5906;51.660;6.674;2023-08-20T03:59:23;13.63;;;8.57;;
11699;SDS011;5906;51.660;6.674;2023-08-20T04:01:50;15.80;;;7.77;;
11699;SDS011;5906;51.660;6.674;2023-08-20T04:04:17;14.20;;;7.83;;
11699;SDS011;5906;51.660;6.674;2023-08-20T04:06:44;24.90;;;8.00;;
11699;SDS011;5906;51.660;6.674;2023-08-20T04:09:11;13.67;;;7.43;;
11699;SDS011;5906;51.660;6.674;2023-08-20T04:11:38;11.33;;;8.20;;
11699;SDS011;5906;51.660;6.674;2023-08-20T04:14:05;11.43;;;7.80;;
11699;SDS011;5906;51.660;6.674;2023-08-20T04:16:32;20.00;;;8.37;;
11699;SDS011;5906;51.660;6.674;2023-08-20T04:18:59;21.53;;;8.00;;
11699;SDS011;5906;51.660;6.674;2023-08-20T04:21:27;17.20;;;8.50;;
11699;SDS011;5906;51.660;6.674;2023-08-20T04:23:55;22.00;;;8.57;;
11699;SDS011;5906;51.660;6.674;2023-08-20T04:26:21;16.17;;;7.80;;
11699;SDS011;5906;51.660;6.674;2023-08-20T04:28:48;10.87;;;7.00;;
11699;SDS011;5906;51.660;6.674;2023-08-20T04:31:16;11.60;;;7.80;;
11699;SDS011;5906;51.660;6.674;2023-08-20T04:33:43;13.03;;;8.27;;
11699;SDS011;5906;51.660;6.674;2023-08-20T04:36:11;17.93;;;7.73;;
11699;SDS011;5906;51.660;6.674;2023-08-20T04:38:41;13.63;;;7.87;;
11699;SDS011;5906;51.660;6.674;2023-08-20T04:41:08;14.60;;;6.73;;
11699;SDS011;5906;51.660;6.674;2023-08-20T04:43:35;18.03;;;7.07;;
11699;SDS011;5906;51.660;6.674;2023-08-20T04:46:02;12.83;;;8.03;;
11699;SDS011;5906;51.660;6.674;2023-08-20T04:48:30;17.40;;;7.80;;
11699;SDS011;5906;51.660;6.674;2023-08-20T04:50:57;14.60;;;7.80;;
11699;SDS011;5906;51.660;6.674;2023-08-20T04:53:25;23.73;;;8.30;;
11699;SDS011;5906;51.660;6.674;2023-08-20T04:55:52;17.33;;;8.63;;
11699;SDS011;5906;51.660;6.674;2023-08-20T04:58:20;12.27;;;7.73;;
11699;SDS011;5906;51.660;6.674;2023-08-20T05:00:47;14.10;;;8.00;;
11699;SDS011;5906;51.660;6.674;2023-08-20T05:03:14;9.10;;;6.70;;
11699;SDS011;5906;51.660;6.674;2023-08-20T05:05:41;10.70;;;7.80;;
11699;SDS011;5906;51.660;6.674;2023-08-20T05:08:08;10.23;;;7.33;;
11699;SDS011;5906;51.660;6.674;2023-08-20T05:10:36;10.80;;;7.30;;
11699;SDS011;5906;51.660;6.674;2023-08-20T05:13:04;13.20;;;8.23;;
11699;SDS011;5906;51.660;6.674;2023-08-20T05:15:31;12.03;;;7.13;;
11699;SDS011;5906;51.660;6.674;2023-08-20T05:17:58;26.63;;;8.03;;
11699;SDS011;5906;51.660;6.674;2023-08-20T05:20:25;15.73;;;9.13;;
11699;SDS011;5906;51.660;6.674;2023-08-20T05:22:52;15.53;;;7.40;;
11699;SDS011;5906;51.660;6.674;2023-08-20T05:25:19;15.40;;;8.17;;
11699;SDS011;5906;51.660;6.674;2023-08-20T05:27:46;15.93;;;7.87;;
11699;SDS011;5906;51.660;6.674;2023-08-20T05:30:13;11.80;;;7.83;;
11699;SDS011;5906;51.660;6.674;2023-08-20T05:32:41;14.90;;;9.10;;
11699;SDS011;5906;51.660;6.674;2023-08-20T05:35:08;12.50;;;8.20;;
11699;SDS011;5906;51.660;6.674;2023-08-20T05:37:35;12.17;;;8.03;;
11699;SDS011;5906;51.660;6.674;2023-08-20T05:40:02;11.00;;;7.87;;
11699;SDS011;5906;51.660;6.674;2023-08-20T05:42:29;14.40;;;8.20;;
11699;SDS011;5906;51.660;6.674;2023-08-20T05:44:56;11.40;;;7.93;;
11699;SDS011;5906;51.660;6.674;2023-08-20T05:47:23;13.57;;;7.80;;
11699;SDS011;5906;51.660;6.674;2023-08-20T05:49:50;14.63;;;8.27;;
11699;SDS011;5906;51.660;6.674;2023-08-20T05:52:20;15.67;;;8.30;;
11699;SDS011;5906;51.660;6.674;2023-08-20T05:54:47;20.17;;;8.47;;
11699;SDS011;5906;51.660;6.674;2023-08-20T05:57:14;14.60;;;8.67;;
11699;SDS011;5906;51.660;6.674;2023-08-20T05:59:41;14.43;;;8.60;;
11699;SDS011;5906;51.660;6.674;2023-08-20T06:02:08;17.10;;;9.90;;
11699;SDS011;5906;51.660;6.674;2023-08-20T06:04:35;21.50;;;9.77;;
11699;SDS011;5906;51.660;6.674;2023-08-20T06:07:02;14.07;;;10.20;;
11699;SDS011;5906;51.660;6.674;2023-08-20T06:09:29;15.50;;;9.50;;
11699;SDS011;5906;51.660;6.674;2023-08-20T06:11:56;15.17;;;9.53;;
11699;SDS011;5906;51.660;6.674;2023-08-20T06:14:23;16.27;;;9.60;;
11699;SDS011;5906;51.660;6.674;2023-08-20T06:16:51;18.83;;;10.57;;
11699;SDS011;5906;51.660;6.674;2023-08-20T06:19:18;21.47;;;10.43;;
11699;SDS011;5906;51.660;6.674;2023-08-20T06:21:45;16.67;;;10.03;;
11699;SDS011;5906;51.660;6.674;2023-08-20T06:24:12;16.57;;;10.50;;
11699;SDS011;5906;51.660;6.674;2023-08-20T06:26:39;14.20;;;9.90;;
11699;SDS011;5906;51.660;6.674;2023-08-20T06:29:06;17.07;;;10.30;;
11699;SDS011;5906;51.660;6.674;2023-08-20T06:31:33;17.53;;;9.67;;
11699;SDS011;5906;51.660;6.674;2023-08-20T06:34:01;16.10;;;10.63;;
11699;SDS011;5906;51.660;6.674;2023-08-20T06:36:29;18.30;;;10.00;;
11699;SDS011;5906;51.660;6.674;2023-08-20T06:38:57;15.20;;;9.90;;
11699;SDS011;5906;51.660;6.674;2023-08-20T06:41:24;16.10;;;9.77;;
11699;SDS011;5906;51.660;6.674;2023-08-20T06:43:51;19.90;;;9.67;;
11699;SDS011;5906;51.660;6.674;2023-08-20T06:46:17;16.53;;;9.10;;
11699;SDS011;5906;51.660;6.674;2023-08-20T06:48:45;15.70;;;11.10;;
11699;SDS011;5906;51.660;6.674;2023-08-20T06:51:15;27.70;;;11.87;;
11699;SDS011;5906;51.660;6.674;2023-08-20T06:53:45;16.27;;;10.60;;
11699;SDS011;5906;51.660;6.674;2023-08-20T06:56:12;21.27;;;10.80;;
11699;SDS011;5906;51.660;6.674;2023-08-20T06:58:39;15.77;;;10.80;;
11699;SDS011;5906;51.660;6.674;2023-08-20T07:01:08;19.97;;;13.23;;
11699;SDS011;5906;51.660;6.674;2023-08-20T07:03:37;35.10;;;17.73;;
11699;SDS011;5906;51.660;6.674;2023-08-20T07:06:05;22.10;;;14.10;;
11699;SDS011;5906;51.660;6.674;2023-08-20T07:08:33;22.47;;;14.77;;
11699;SDS011;5906;51.660;6.674;2023-08-20T07:11:00;40.77;;;19.87;;
11699;SDS011;5906;51.660;6.674;2023-08-20T07:13:27;31.30;;;18.27;;
11699;SDS011;5906;51.660;6.674;2023-08-20T07:15:54;35.33;;;22.00;;
11699;SDS011;5906;51.660;6.674;2023-08-20T07:18:22;37.63;;;23.17;;
11699;SDS011;5906;51.660;6.674;2023-08-20T07:20:49;39.30;;;22.80;;
11699;SDS011;5906;51.660;6.674;2023-08-20T07:23:17;38.10;;;23.80;;
11699;SDS011;5906;51.660;6.674;2023-08-20T07:25:45;46.03;;;26.03;;
11699;SDS011;5906;51.660;6.674;2023-08-20T07:28:13;37.40;;;22.20;;
11699;SDS011;5906;51.660;6.674;2023-08-20T07:30:40;36.77;;;21.40;;
11699;SDS011;5906;51.660;6.674;2023-08-20T07:33:07;36.77;;;22.13;;
11699;SDS011;5906;51.660;6.674;2023-08-20T07:35:34;39.70;;;22.90;;
11699;SDS011;5906;51.660;6.674;2023-08-20T07:38:02;39.10;;;22.47;;
11699;SDS011;5906;51.660;6.674;2023-08-20T07:40:29;33.87;;;20.90;;
11699;SDS011;5906;51.660;6.674;2023-08-20T07:42:59;39.13;;;21.57;;
11699;SDS011;5906;51.660;6.674;2023-08-20T07:45:25;38.50;;;21.40;;
11699;SDS011;5906;51.660;6.674;2023-08-20T07:47:53;31.40;;;19.83;;
11699;SDS011;5906;51.660;6.674;2023-08-20T07:50:20;28.80;;;19.13;;
11699;SDS011;5906;51.660;6.674;2023-08-20T07:52:47;34.87;;;20.83;;
11699;SDS011;5906;51.660;6.674;2023-08-20T07:55:14;35.97;;;19.63;;
11699;SDS011;5906;51.660;6.674;2023-08-20T07:57:42;35.97;;;18.33;;
11699;SDS011;5906;51.660;6.674;2023-08-20T08:00:09;29.50;;;19.53;;
11699;SDS011;5906;51.660;6.674;2023-08-20T08:02:37;29.20;;;19.80;;
11699;SDS011;5906;51.660;6.674;2023-08-20T08:05:04;29.77;;;18.47;;
11699;SDS011;5906;51.660;6.674;2023-08-20T08:07:32;34.20;;;18.80;;
11699;SDS011;5906;51.660;6.674;2023-08-20T08:09:59;33.37;;;20.63;;
11699;SDS011;5906;51.660;6.674;2023-08-20T08:12:26;29.73;;;18.97;;
11699;SDS011;5906;51.660;6.674;2023-08-20T08:14:53;26.83;;;18.57;;
11699;SDS011;5906;51.660;6.674;2023-08-20T08:17:20;24.87;;;17.20;;
11699;SDS011;5906;51.660;6.674;2023-08-20T08:19:47;27.80;;;17.40;;
11699;SDS011;5906;51.660;6.674;2023-08-20T08:22:17;31.33;;;18.20;;
11699;SDS011;5906;51.660;6.674;2023-08-20T08:24:44;39.77;;;18.30;;
11699;SDS011;5906;51.660;6.674;2023-08-20T08:27:11;33.30;;;19.67;;
11699;SDS011;5906;51.660;6.674;2023-08-20T08:29:38;27.97;;;18.80;;
11699;SDS011;5906;51.660;6.674;2023-08-20T08:32:05;33.17;;;17.90;;
11699;SDS011;5906;51.660;6.674;2023-08-20T08:34:34;31.40;;;19.00;;
11699;SDS011;5906;51.660;6.674;2023-08-20T08:37:01;30.57;;;19.30;;
11699;SDS011;5906;51.660;6.674;2023-08-20T08:39:28;23.53;;;17.10;;
11699;SDS011;5906;51.660;6.674;2023-08-20T08:41:58;24.87;;;19.47;;
11699;SDS011;5906;51.660;6.674;2023-08-20T08:44:31;24.40;;;17.40;;
11699;SDS011;5906;51.660;6.674;2023-08-20T08:47:00;26.53;;;17.83;;
11699;SDS011;5906;51.660;6.674;2023-08-20T08:49:28;22.13;;;15.07;;
11699;SDS011;5906;51.660;6.674;2023-08-20T08:51:57;21.20;;;14.00;;
11699;SDS011;5906;51.660;6.674;2023-08-20T08:54:24;26.57;;;14.07;;
11699;SDS011;5906;51.660;6.674;2023-08-20T08:56:53;29.50;;;14.67;;
11699;SDS011;5906;51.660;6.674;2023-08-20T08:59:20;21.73;;;13.80;;
11699;SDS011;5906;51.660;6.674;2023-08-20T09:01:47;19.47;;;14.33;;
11699;SDS011;5906;51.660;6.674;2023-08-20T09:04:15;26.50;;;15.97;;
11699;SDS011;5906;51.660;6.674;2023-08-20T09:06:49;21.70;;;15.10;;
11699;SDS011;5906;51.660;6.674;2023-08-20T09:09:18;24.57;;;14.50;;
11699;SDS011;5906;51.660;6.674;2023-08-20T09:11:47;23.40;;;15.30;;
11699;SDS011;5906;51.660;6.674;2023-08-20T09:14:23;25.33;;;13.67;;
11699;SDS011;5906;51.660;6.674;2023-08-20T09:16:57;22.73;;;15.30;;
11699;SDS011;5906;51.660;6.674;2023-08-20T09:19:35;26.07;;;17.27;;
11699;SDS011;5906;51.660;6.674;2023-08-20T09:22:05;26.70;;;17.03;;
11699;SDS011;5906;51.660;6.674;2023-08-20T09:24:39;27.57;;;18.57;;
11699;SDS011;5906;51.660;6.674;2023-08-20T09:27:14;26.07;;;17.13;;
11699;SDS011;5906;51.660;6.674;2023-08-20T09:29:48;29.13;;;18.60;;
11699;SDS011;5906;51.660;6.674;2023-08-20T09:32:21;31.53;;;19.30;;
11699;SDS011;5906;51.660;6.674;2023-08-20T09:34:49;37.63;;;19.17;;
11699;SDS011;5906;51.660;6.674;2023-08-20T09:37:19;31.27;;;20.57;;
11699;SDS011;5906;51.660;6.674;2023-08-20T09:39:48;32.50;;;18.87;;
11699;SDS011;5906;51.660;6.674;2023-08-20T09:42:15;25.03;;;18.17;;
11699;SDS011;5906;51.660;6.674;2023-08-20T09:44:43;21.90;;;18.70;;
11699;SDS011;5906;51.660;6.674;2023-08-20T09:47:15;25.07;;;19.53;;
11699;SDS011;5906;51.660;6.674;2023-08-20T09:49:44;25.73;;;19.00;;
11699;SDS011;5906;51.660;6.674;2023-08-20T09:52:16;24.30;;;20.13;;
11699;SDS011;5906;51.660;6.674;2023-08-20T09:54:59;20.03;;;17.93;;
11699;SDS011;5906;51.660;6.674;2023-08-20T10:00:01;19.10;;;15.80;;
11699;SDS011;5906;51.660;6.674;2023-08-20T10:02:29;20.77;;;13.53;;
11699;SDS011;5906;51.660;6.674;2023-08-20T10:04:57;19.70;;;13.70;;
11699;SDS011;5906;51.660;6.674;2023-08-20T10:07:28;16.17;;;12.53;;
11699;SDS011;5906;51.660;6.674;2023-08-20T10:10:06;18.30;;;11.40;;
11699;SDS011;5906;51.660;6.674;2023-08-20T10:12:36;16.93;;;12.03;;
11699;SDS011;5906;51.660;6.674;2023-08-20T10:15:08;14.90;;;10.67;;
11699;SDS011;5906;51.660;6.674;2023-08-20T10:17:37;14.80;;;9.50;;
11699;SDS011;5906;51.660;6.674;2023-08-20T10:20:06;9.60;;;8.60;;
11699;SDS011;5906;51.660;6.674;2023-08-20T10:22:38;10.87;;;8.93;;
11699;SDS011;5906;51.660;6.674;2023-08-20T10:25:09;10.90;;;8.30;;
11699;SDS011;5906;51.660;6.674;2023-08-20T10:27:41;15.83;;;9.03;;
11699;SDS011;5906;51.660;6.674;2023-08-20T10:30:16;16.43;;;8.90;;
11699;SDS011;5906;51.660;6.674;2023-08-20T10:32:48;16.40;;;9.30;;
11699;SDS011;5906;51.660;6.674;2023-08-20T10:35:17;12.77;;;7.83;;
11699;SDS011;5906;51.660;6.674;2023-08-20T10:38:05;14.83;;;8.10;;
11699;SDS011;5906;51.660;6.674;2023-08-20T10:40:53;16.97;;;7.90;;
11699;SDS011;5906;51.660;6.674;2023-08-20T10:46:02;9.47;;;7.43;;
11699;SDS011;5906;51.660;6.674;2023-08-20T10:48:38;9.77;;;6.93;;
11699;SDS011;5906;51.660;6.674;2023-08-20T10:51:16;10.93;;;6.60;;
11699;SDS011;5906;51.660;6.674;2023-08-20T10:53:48;11.77;;;5.60;;
11699;SDS011;5906;51.660;6.674;2023-08-20T11:01:46;10.20;;;5.07;;
11699;SDS011;5906;51.660;6.674;2023-08-20T11:04:18;8.53;;;4.30;;
11699;SDS011;5906;51.660;6.674;2023-08-20T11:06:49;10.93;;;3.70;;
11699;SDS011;5906;51.660;6.674;2023-08-20T11:09:18;8.90;;;4.30;;
11699;SDS011;5906;51.660;6.674;2023-08-20T11:11:46;11.57;;;3.40;;
11699;SDS011;5906;51.660;6.674;2023-08-20T11:14:14;7.20;;;3.40;;
11699;SDS011;5906;51.660;6.674;2023-08-20T11:16:42;13.33;;;3.20;;
11699;SDS011;5906;51.660;6.674;2023-08-20T11:19:10;9.13;;;2.90;;
11699;SDS011;5906;51.660;6.674;2023-08-20T11:21:38;7.57;;;2.80;;
11699;SDS011;5906;51.660;6.674;2023-08-20T11:24:07;6.10;;;3.00;;
11699;SDS011;5906;51.660;6.674;2023-08-20T11:26:34;7.63;;;3.00;;
11699;SDS011;5906;51.660;6.674;2023-08-20T11:29:09;6.53;;;2.90;;
11699;SDS011;5906;51.660;6.674;2023-08-20T11:31:41;8.57;;;2.67;;
11699;SDS011;5906;51.660;6.674;2023-08-20T11:34:08;7.10;;;2.73;;
11699;SDS011;5906;51.660;6.674;2023-08-20T11:36:35;6.70;;;2.60;;
11699;SDS011;5906;51.660;6.674;2023-08-20T11:39:06;4.47;;;2.50;;
11699;SDS011;5906;51.660;6.674;2023-08-20T11:41:38;7.63;;;3.00;;
11699;SDS011;5906;51.660;6.674;2023-08-20T11:44:08;12.10;;;3.20;;
11699;SDS011;5906;51.660;6.674;2023-08-20T11:46:41;15.23;;;2.93;;
11699;SDS011;5906;51.660;6.674;2023-08-20T11:49:10;7.87;;;3.30;;
11699;SDS011;5906;51.660;6.674;2023-08-20T11:51:46;5.20;;;3.10;;
11699;SDS011;5906;51.660;6.674;2023-08-20T11:54:14;5.50;;;2.30;;
11699;SDS011;5906;51.660;6.674;2023-08-20T11:56:50;12.50;;;2.80;;
11699;SDS011;5906;51.660;6.674;2023-08-20T11:59:21;3.43;;;2.47;;
11699;SDS011;5906;51.660;6.674;2023-08-20T12:01:54;9.10;;;2.83;;
11699;SDS011;5906;51.660;6.674;2023-08-20T12:04:23;8.20;;;3.17;;
11699;SDS011;5906;51.660;6.674;2023-08-20T12:07:03;7.47;;;2.10;;
11699;SDS011;5906;51.660;6.674;2023-08-20T12:09:54;9.40;;;2.83;;
11699;SDS011;5906;51.660;6.674;2023-08-20T12:12:22;7.70;;;2.30;;
11699;SDS011;5906;51.660;6.674;2023-08-20T12:14:49;3.27;;;2.00;;
11699;SDS011;5906;51.660;6.674;2023-08-20T12:17:17;3.80;;;1.80;;
11699;SDS011;5906;51.660;6.674;2023-08-20T12:19:45;6.83;;;2.30;;
11699;SDS011;5906;51.660;6.674;2023-08-20T12:22:12;5.57;;;2.07;;
11699;SDS011;5906;51.660;6.674;2023-08-20T12:24:39;3.40;;;2.40;;
11699;SDS011;5906;51.660;6.674;2023-08-20T12:27:07;5.43;;;2.00;;
11699;SDS011;5906;51.660;6.674;2023-08-20T12:29:34;5.10;;;2.20;;
11699;SDS011;5906;51.660;6.674;2023-08-20T12:32:02;11.63;;;2.27;;
11699;SDS011;5906;51.660;6.674;2023-08-20T12:34:30;3.17;;;1.63;;
11699;SDS011;5906;51.660;6.674;2023-08-20T12:36:57;5.90;;;1.93;;
11699;SDS011;5906;51.660;6.674;2023-08-20T12:39:24;4.27;;;2.10;;
11699;SDS011;5906;51.660;6.674;2023-08-20T12:41:51;5.93;;;1.90;;
11699;SDS011;5906;51.660;6.674;2023-08-20T12:44:18;6.83;;;1.83;;
11699;SDS011;5906;51.660;6.674;2023-08-20T12:46:45;3.63;;;1.60;;
11699;SDS011;5906;51.660;6.674;2023-08-20T12:49:13;2.97;;;1.50;;
11699;SDS011;5906;51.660;6.674;2023-08-20T12:51:40;5.07;;;1.87;;
11699;SDS011;5906;51.660;6.674;2023-08-20T12:54:07;3.40;;;1.50;;
11699;SDS011;5906;51.660;6.674;2023-08-20T12:56:35;5.43;;;1.80;;
11699;SDS011;5906;51.660;6.674;2023-08-20T12:59:02;6.20;;;1.93;;
11699;SDS011;5906;51.660;6.674;2023-08-20T13:01:29;4.40;;;1.80;;
11699;SDS011;5906;51.660;6.674;2023-08-20T13:03:57;8.47;;;1.90;;
11699;SDS011;5906;51.660;6.674;2023-08-20T13:06:24;3.27;;;1.50;;
11699;SDS011;5906;51.660;6.674;2023-08-20T13:08:51;2.90;;;1.60;;
11699;SDS011;5906;51.660;6.674;2023-08-20T13:11:18;2.63;;;1.53;;
11699;SDS011;5906;51.660;6.674;2023-08-20T13:13:48;6.90;;;1.67;;
11699;SDS011;5906;51.660;6.674;2023-08-20T13:16:15;4.90;;;1.93;;
11699;SDS011;5906;51.660;6.674;2023-08-20T13:18:46;8.90;;;1.90;;
11699;SDS011;5906;51.660;6.674;2023-08-20T13:21:13;6.70;;;2.10;;
11699;SDS011;5906;51.660;6.674;2023-08-20T13:23:40;4.10;;;1.63;;
11699;SDS011;5906;51.660;6.674;2023-08-20T13:26:07;4.30;;;1.80;;
11699;SDS011;5906;51.660;6.674;2023-08-20T13:28:36;4.70;;;1.60;;
11699;SDS011;5906;51.660;6.674;2023-08-20T13:31:03;3.90;;;1.90;;
11699;SDS011;5906;51.660;6.674;2023-08-20T13:33:30;3.93;;;1.80;;
11699;SDS011;5906;51.660;6.674;2023-08-20T13:35:57;7.23;;;2.07;;
11699;SDS011;5906;51.660;6.674;2023-08-20T13:38:24;3.57;;;1.83;;
11699;SDS011;5906;51.660;6.674;2023-08-20T13:40:51;3.30;;;1.80;;
11699;SDS011;5906;51.660;6.674;2023-08-20T13:43:18;9.60;;;1.87;;
11699;SDS011;5906;51.660;6.674;2023-08-20T13:45:45;3.73;;;1.77;;
11699;SDS011;5906;51.660;6.674;2023-08-20T13:48:13;2.53;;;1.77;;
11699;SDS011;5906;51.660;6.674;2023-08-20T13:50:40;4.03;;;1.70;;
11699;SDS011;5906;51.660;6.674;2023-08-20T13:53:07;3.50;;;1.90;;
11699;SDS011;5906;51.660;6.674;2023-08-20T13:55:34;8.93;;;1.97;;
11699;SDS011;5906;51.660;6.674;2023-08-20T13:58:01;4.27;;;1.50;;
11699;SDS011;5906;51.660;6.674;2023-08-20T14:00:28;2.50;;;1.53;;
11699;SDS011;5906;51.660;6.674;2023-08-20T14:02:55;4.23;;;1.90;;
11699;SDS011;5906;51.660;6.674;2023-08-20T14:05:22;3.17;;;1.50;;
11699;SDS011;5906;51.660;6.674;2023-08-20T14:07:49;2.75;;;1.45;;
11699;SDS011;5906;51.660;6.674;2023-08-20T14:10:16;4.40;;;1.63;;
11699;SDS011;5906;51.660;6.674;2023-08-20T14:12:43;6.03;;;1.75;;
11699;SDS011;5906;51.660;6.674;2023-08-20T14:15:10;3.23;;;1.60;;
11699;SDS011;5906;51.660;6.674;2023-08-20T14:17:37;3.97;;;1.90;;
11699;SDS011;5906;51.660;6.674;2023-08-20T14:20:05;3.97;;;1.75;;
11699;SDS011;5906;51.660;6.674;2023-08-20T14:22:34;3.22;;;1.75;;
11699;SDS011;5906;51.660;6.674;2023-08-20T14:25:02;3.10;;;1.47;;
11699;SDS011;5906;51.660;6.674;2023-08-20T14:27:30;5.83;;;1.87;;
11699;SDS011;5906;51.660;6.674;2023-08-20T14:29:57;2.83;;;1.60;;
11699;SDS011;5906;51.660;6.674;2023-08-20T14:32:23;12.67;;;2.07;;
11699;SDS011;5906;51.660;6.674;2023-08-20T14:34:50;4.53;;;1.77;;
11699;SDS011;5906;51.660;6.674;2023-08-20T14:37:18;2.67;;;1.50;;
11699;SDS011;5906;51.660;6.674;2023-08-20T14:39:45;3.57;;;1.70;;
11699;SDS011;5906;51.660;6.674;2023-08-20T14:42:12;3.83;;;1.37;;
11699;SDS011;5906;51.660;6.674;2023-08-20T14:44:39;5.93;;;1.43;;
11699;SDS011;5906;51.660;6.674;2023-08-20T14:47:06;6.47;;;1.77;;
11699;SDS011;5906;51.660;6.674;2023-08-20T14:49:33;5.20;;;1.70;;
11699;SDS011;5906;51.660;6.674;2023-08-20T14:52:00;3.07;;;1.50;;
11699;SDS011;5906;51.660;6.674;2023-08-20T14:54:44;3.67;;;1.50;;
11699;SDS011;5906;51.660;6.674;2023-08-20T14:57:11;2.20;;;1.50;;
11699;SDS011;5906;51.660;6.674;2023-08-20T14:59:38;2.57;;;1.50;;
11699;SDS011;5906;51.660;6.674;2023-08-20T15:02:05;6.10;;;1.67;;
11699;SDS011;5906;51.660;6.674;2023-08-20T15:04:32;2.37;;;1.20;;
11699;SDS011;5906;51.660;6.674;2023-08-20T15:06:58;8.53;;;1.47;;
11699;SDS011;5906;51.660;6.674;2023-08-20T15:09:25;5.83;;;1.70;;